createdAt,value
2018-01-30T00:00:56.472Z,5.80
2018-01-30T00:01:58.970Z,5.90
2018-01-30T00:03:02.213Z,5.90
2018-01-30T00:04:04.719Z,5.90
2018-01-30T00:05:07.698Z,5.80
2018-01-30T00:06:10.177Z,5.80
2018-01-30T00:07:12.765Z,5.80
2018-01-30T00:08:15.624Z,5.80
2018-01-30T00:09:18.183Z,5.80
2018-01-30T00:10:21.353Z,5.80
2018-01-30T00:11:23.854Z,5.80
2018-01-30T00:12:27.086Z,5.80
2018-01-30T00:13:29.578Z,5.80
2018-01-30T00:14:32.038Z,5.80
2018-01-30T00:15:34.497Z,5.80
2018-01-30T00:16:37.002Z,5.80
2018-01-30T00:17:40.822Z,5.70
2018-01-30T00:18:43.378Z,5.70
2018-01-30T00:19:46.699Z,5.70
2018-01-30T00:20:50.430Z,5.70
2018-01-30T00:21:52.924Z,5.70
2018-01-30T00:22:55.402Z,5.70
2018-01-30T00:23:57.997Z,5.60
2018-01-30T00:25:00.490Z,5.60
2018-01-30T00:26:03.713Z,5.60
2018-01-30T00:27:06.282Z,5.60
2018-01-30T00:28:08.773Z,5.60
2018-01-30T00:29:12.153Z,5.60
2018-01-30T00:30:14.675Z,5.60
2018-01-30T00:31:17.171Z,5.60
2018-01-30T00:32:20.720Z,5.60
2018-01-30T00:33:23.946Z,5.60
2018-01-30T00:34:26.433Z,5.60
2018-01-30T00:35:28.912Z,5.60
2018-01-30T00:36:32.442Z,5.60
2018-01-30T00:37:35.085Z,5.60
2018-01-30T00:38:37.556Z,5.60
2018-01-30T00:39:40.081Z,5.60
2018-01-30T00:40:42.498Z,5.60
2018-01-30T00:41:44.989Z,5.50
2018-01-30T00:42:48.226Z,5.50
2018-01-30T00:43:50.693Z,5.50
2018-01-30T00:44:53.194Z,5.50
2018-01-30T00:45:55.711Z,5.50
2018-01-30T00:46:58.931Z,5.60
2018-01-30T00:48:01.417Z,5.50
2018-01-30T00:49:03.881Z,5.60
2018-01-30T00:50:06.367Z,5.60
2018-01-30T00:51:08.850Z,5.60
2018-01-30T00:52:12.188Z,5.60
2018-01-30T00:53:14.686Z,5.60
2018-01-30T00:54:17.142Z,5.60
2018-01-30T00:55:20.482Z,5.60
2018-01-30T00:56:23.738Z,5.60
2018-01-30T00:57:26.977Z,5.60
2018-01-30T00:58:30.229Z,5.60
2018-01-30T00:59:33.892Z,5.60
2018-01-30T01:00:36.355Z,5.60
2018-01-30T01:01:38.875Z,5.60
2018-01-30T01:02:41.391Z,5.60
2018-01-30T01:03:43.854Z,5.50
2018-01-30T01:04:46.431Z,5.50
2018-01-30T01:05:48.939Z,5.50
2018-01-30T01:06:51.446Z,5.50
2018-01-30T01:07:54.671Z,5.60
2018-01-30T01:08:57.133Z,5.60
2018-01-30T01:09:59.665Z,5.60
2018-01-30T01:11:02.574Z,5.60
2018-01-30T01:12:05.814Z,5.60
2018-01-30T01:13:08.308Z,5.60
2018-01-30T01:14:10.780Z,5.60
2018-01-30T01:15:13.358Z,5.70
2018-01-30T01:16:15.844Z,5.70
2018-01-30T01:17:18.323Z,5.70
2018-01-30T01:18:20.845Z,5.70
2018-01-30T01:19:23.464Z,5.70
2018-01-30T01:20:27.701Z,5.70
2018-01-30T01:21:31.035Z,5.70
2018-01-30T01:22:33.522Z,5.70
2018-01-30T01:23:36.762Z,5.70
2018-01-30T01:24:39.239Z,5.70
2018-01-30T01:25:41.748Z,5.70
2018-01-30T01:26:44.196Z,5.70
2018-01-30T01:27:46.663Z,5.70
2018-01-30T01:28:49.727Z,5.70
2018-01-30T01:29:52.198Z,5.70
2018-01-30T01:30:54.686Z,5.70
2018-01-30T01:31:57.929Z,5.70
2018-01-30T01:33:00.802Z,5.70
2018-01-30T01:34:03.302Z,5.70
2018-01-30T01:35:05.810Z,5.70
2018-01-30T01:36:08.883Z,5.70
2018-01-30T01:37:11.373Z,5.70
2018-01-30T01:38:13.858Z,5.70
2018-01-30T01:39:16.383Z,5.70
2018-01-30T01:40:19.766Z,5.70
2018-01-30T01:41:22.651Z,5.70
2018-01-30T01:42:25.126Z,5.70
2018-01-30T01:43:27.591Z,5.70
2018-01-30T01:44:30.123Z,5.70
2018-01-30T01:45:32.594Z,5.70
2018-01-30T01:46:35.053Z,5.70
2018-01-30T01:47:37.571Z,5.60
2018-01-30T01:48:40.042Z,5.60
2018-01-30T01:49:42.606Z,5.60
2018-01-30T01:50:45.140Z,5.60
2018-01-30T01:51:47.680Z,5.60
2018-01-30T01:52:50.154Z,5.60
2018-01-30T01:53:53.431Z,5.60
2018-01-30T01:54:55.906Z,5.60
2018-01-30T01:55:58.392Z,5.60
2018-01-30T01:57:00.853Z,5.60
2018-01-30T01:58:03.351Z,5.60
2018-01-30T01:59:05.831Z,5.60
2018-01-30T02:00:09.138Z,5.50
2018-01-30T02:01:11.594Z,5.50
2018-01-30T02:02:14.870Z,5.50
2018-01-30T02:03:17.382Z,5.50
2018-01-30T02:04:20.610Z,5.50
2018-01-30T02:05:23.841Z,5.50
2018-01-30T02:06:26.317Z,5.40
2018-01-30T02:07:28.812Z,5.40
2018-01-30T02:08:31.446Z,5.40
2018-01-30T02:09:33.929Z,5.40
2018-01-30T02:10:36.390Z,5.40
2018-01-30T02:11:38.977Z,5.40
2018-01-30T02:12:41.446Z,5.40
2018-01-30T02:13:43.938Z,5.40
2018-01-30T02:14:46.406Z,5.40
2018-01-30T02:15:49.459Z,5.40
2018-01-30T02:16:51.963Z,5.40
2018-01-30T02:17:54.427Z,5.40
2018-01-30T02:18:56.911Z,5.40
2018-01-30T02:19:59.533Z,5.40
2018-01-30T02:21:02.774Z,5.40
2018-01-30T02:22:06.037Z,5.40
2018-01-30T02:23:08.498Z,5.40
2018-01-30T02:24:11.003Z,5.40
2018-01-30T02:25:13.502Z,5.40
2018-01-30T02:26:16.011Z,5.40
2018-01-30T02:27:19.282Z,5.40
2018-01-30T02:28:21.755Z,5.40
2018-01-30T02:29:24.244Z,5.40
2018-01-30T02:30:26.768Z,5.40
2018-01-30T02:31:29.231Z,5.40
2018-01-30T02:32:31.694Z,5.40
2018-01-30T02:33:34.179Z,5.40
2018-01-30T02:34:38.172Z,5.30
2018-01-30T02:35:40.671Z,5.30
2018-01-30T02:36:43.521Z,5.30
2018-01-30T02:37:46.749Z,5.30
2018-01-30T02:38:49.528Z,5.30
2018-01-30T02:39:51.988Z,5.30
2018-01-30T02:40:54.479Z,5.40
2018-01-30T02:41:56.951Z,5.30
2018-01-30T02:42:59.422Z,5.40
2018-01-30T02:44:01.886Z,5.40
2018-01-30T02:45:04.362Z,5.40
2018-01-30T02:46:06.827Z,5.40
2018-01-30T02:47:09.307Z,5.40
2018-01-30T02:48:11.815Z,5.40
2018-01-30T02:49:15.042Z,5.30
2018-01-30T02:50:17.504Z,5.30
2018-01-30T02:51:19.974Z,5.30
2018-01-30T02:52:22.433Z,5.30
2018-01-30T02:53:25.678Z,5.30
2018-01-30T02:54:29.671Z,5.30
2018-01-30T02:55:32.160Z,5.30
2018-01-30T02:56:35.393Z,5.30
2018-01-30T02:57:38.666Z,5.30
2018-01-30T02:58:41.150Z,5.30
2018-01-30T02:59:44.018Z,5.30
2018-01-30T03:00:46.496Z,5.30
2018-01-30T03:01:48.969Z,5.30
2018-01-30T03:02:51.486Z,5.30
2018-01-30T03:03:53.979Z,5.30
2018-01-30T03:04:56.542Z,5.30
2018-01-30T03:05:59.057Z,5.30
2018-01-30T03:07:02.294Z,5.30
2018-01-30T03:08:05.559Z,5.30
2018-01-30T03:09:08.079Z,5.30
2018-01-30T03:10:10.550Z,5.30
2018-01-30T03:11:13.027Z,5.30
2018-01-30T03:12:15.498Z,5.30
2018-01-30T03:13:17.958Z,5.30
2018-01-30T03:14:21.238Z,5.30
2018-01-30T03:15:23.718Z,5.30
2018-01-30T03:16:26.179Z,5.30
2018-01-30T03:17:28.657Z,5.30
2018-01-30T03:18:31.211Z,5.30
2018-01-30T03:19:34.438Z,5.30
2018-01-30T03:20:37.688Z,5.30
2018-01-30T03:21:40.926Z,5.30
2018-01-30T03:22:44.190Z,5.30
2018-01-30T03:23:46.714Z,5.30
2018-01-30T03:24:49.264Z,5.30
2018-01-30T03:25:51.765Z,5.30
2018-01-30T03:26:54.223Z,5.30
2018-01-30T03:27:56.692Z,5.30
2018-01-30T03:28:59.156Z,5.30
2018-01-30T03:30:02.339Z,5.30
2018-01-30T03:31:04.825Z,5.30
2018-01-30T03:32:07.309Z,5.30
2018-01-30T03:33:10.538Z,5.30
2018-01-30T03:34:13.136Z,5.30
2018-01-30T03:35:15.596Z,5.30
2018-01-30T03:36:18.065Z,5.30
2018-01-30T03:37:20.897Z,5.40
2018-01-30T03:38:23.426Z,5.30
2018-01-30T03:39:25.898Z,5.30
2018-01-30T03:40:28.487Z,5.30
2018-01-30T03:41:31.034Z,5.30
2018-01-30T03:42:33.789Z,5.30
2018-01-30T03:43:36.376Z,5.30
2018-01-30T03:44:38.826Z,5.30
2018-01-30T03:45:41.291Z,5.30
2018-01-30T03:46:43.789Z,5.30
2018-01-30T03:47:46.350Z,5.30
2018-01-30T03:48:48.824Z,5.30
2018-01-30T03:49:51.288Z,5.30
2018-01-30T03:50:55.166Z,5.30
2018-01-30T03:51:57.640Z,5.30
2018-01-30T03:53:00.104Z,5.30
2018-01-30T03:54:02.585Z,5.30
2018-01-30T03:55:05.121Z,5.30
2018-01-30T03:56:08.397Z,5.40
2018-01-30T03:57:10.914Z,5.40
2018-01-30T03:58:13.448Z,5.30
2018-01-30T03:59:15.908Z,5.30
2018-01-30T04:00:18.398Z,5.30
2018-01-30T04:01:20.902Z,5.30
2018-01-30T04:02:24.131Z,5.30
2018-01-30T04:03:26.639Z,5.30
2018-01-30T04:04:29.096Z,5.30
2018-01-30T04:05:32.338Z,5.30
2018-01-30T04:06:35.613Z,5.30
2018-01-30T04:07:38.113Z,5.30
2018-01-30T04:08:41.350Z,5.30
2018-01-30T04:09:44.626Z,5.40
2018-01-30T04:10:47.252Z,5.30
2018-01-30T04:11:49.812Z,5.30
2018-01-30T04:12:52.319Z,5.30
2018-01-30T04:13:54.774Z,5.40
2018-01-30T04:14:57.363Z,5.40
2018-01-30T04:15:59.855Z,5.40
2018-01-30T04:17:03.112Z,5.40
2018-01-30T04:18:05.590Z,5.40
2018-01-30T04:19:08.050Z,5.40
2018-01-30T04:20:11.430Z,5.40
2018-01-30T04:21:13.893Z,5.40
2018-01-30T04:22:16.364Z,5.30
2018-01-30T04:23:18.921Z,5.30
2018-01-30T04:24:21.484Z,5.30
2018-01-30T04:25:23.936Z,5.30
2018-01-30T04:26:26.403Z,5.30
2018-01-30T04:27:28.963Z,5.30
2018-01-30T04:28:32.216Z,5.30
2018-01-30T04:29:35.458Z,5.30
2018-01-30T04:30:38.689Z,5.30
2018-01-30T04:31:41.959Z,5.30
2018-01-30T04:32:44.415Z,5.30
2018-01-30T04:33:46.900Z,5.30
2018-01-30T04:34:50.173Z,5.20
2018-01-30T04:35:52.696Z,5.20
2018-01-30T04:36:55.767Z,5.20
2018-01-30T04:37:59.051Z,5.20
2018-01-30T04:39:01.630Z,5.20
2018-01-30T04:40:04.088Z,5.10
2018-01-30T04:41:07.324Z,5.10
2018-01-30T04:42:09.843Z,5.10
2018-01-30T04:43:13.122Z,5.00
2018-01-30T04:44:15.593Z,5.00
2018-01-30T04:45:18.113Z,5.00
2018-01-30T04:46:20.652Z,5.00
2018-01-30T04:47:23.174Z,5.00
2018-01-30T04:48:25.652Z,5.00
2018-01-30T04:49:28.186Z,5.00
2018-01-30T04:50:30.652Z,5.00
2018-01-30T04:51:33.896Z,5.00
2018-01-30T04:52:36.480Z,5.00
2018-01-30T04:53:38.941Z,5.00
2018-01-30T04:54:41.413Z,5.00
2018-01-30T04:55:43.917Z,5.00
2018-01-30T04:56:47.180Z,5.00
2018-01-30T04:57:49.657Z,5.00
2018-01-30T04:58:52.127Z,5.00
2018-01-30T04:59:54.605Z,5.00
2018-01-30T05:00:57.102Z,5.00
2018-01-30T05:01:59.608Z,5.00
2018-01-30T05:03:02.086Z,5.00
2018-01-30T05:04:04.654Z,4.90
2018-01-30T05:05:07.144Z,4.90
2018-01-30T05:06:09.614Z,4.90
2018-01-30T05:07:12.164Z,5.00
2018-01-30T05:08:14.658Z,4.90
2018-01-30T05:09:17.118Z,4.90
2018-01-30T05:10:19.605Z,4.90
2018-01-30T05:11:22.844Z,4.90
2018-01-30T05:12:26.109Z,4.90
2018-01-30T05:13:28.616Z,4.90
2018-01-30T05:14:31.092Z,4.90
2018-01-30T05:15:33.590Z,4.90
2018-01-30T05:16:36.051Z,4.90
2018-01-30T05:17:38.548Z,4.90
2018-01-30T05:18:41.009Z,4.90
2018-01-30T05:19:43.564Z,4.90
2018-01-30T05:20:46.035Z,4.90
2018-01-30T05:21:48.535Z,4.90
2018-01-30T05:22:51.673Z,4.90
2018-01-30T05:23:54.199Z,4.90
2018-01-30T05:24:56.663Z,4.90
2018-01-30T05:25:59.299Z,4.80
2018-01-30T05:27:01.774Z,4.80
2018-01-30T05:28:04.774Z,4.80
2018-01-30T05:29:08.022Z,4.70
2018-01-30T05:30:11.357Z,4.70
2018-01-30T05:31:14.613Z,4.70
2018-01-30T05:32:17.860Z,4.70
2018-01-30T05:33:21.090Z,4.70
2018-01-30T05:34:24.358Z,4.60
2018-01-30T05:35:26.866Z,4.60
2018-01-30T05:36:30.095Z,4.60
2018-01-30T05:37:33.385Z,4.60
2018-01-30T05:38:35.904Z,4.60
2018-01-30T05:39:38.393Z,4.60
2018-01-30T05:40:41.710Z,4.60
2018-01-30T05:41:44.166Z,4.60
2018-01-30T05:42:47.430Z,4.60
2018-01-30T05:43:49.905Z,4.60
2018-01-30T05:44:52.406Z,4.70
2018-01-30T05:45:54.906Z,4.70
2018-01-30T05:46:58.379Z,4.70
2018-01-30T05:48:00.841Z,4.70
2018-01-30T05:49:03.389Z,4.70
2018-01-30T05:50:06.660Z,4.80
2018-01-30T05:51:09.917Z,4.80
2018-01-30T05:52:12.384Z,4.80
2018-01-30T05:53:14.861Z,4.80
2018-01-30T05:54:17.322Z,4.90
2018-01-30T05:55:19.810Z,4.90
2018-01-30T05:56:22.276Z,4.90
2018-01-30T05:57:24.829Z,4.90
2018-01-30T05:58:28.079Z,4.90
2018-01-30T05:59:30.543Z,4.90
2018-01-30T06:00:33.592Z,5.00
2018-01-30T06:01:36.074Z,5.00
2018-01-30T06:02:38.595Z,5.00
2018-01-30T06:03:41.794Z,5.00
2018-01-30T06:04:44.255Z,4.90
2018-01-30T06:05:46.729Z,5.00
2018-01-30T06:06:49.195Z,4.90
2018-01-30T06:07:52.450Z,4.90
2018-01-30T06:08:54.976Z,4.90
2018-01-30T06:09:57.442Z,4.90
2018-01-30T06:11:00.202Z,5.00
2018-01-30T06:12:02.714Z,5.00
2018-01-30T06:13:05.205Z,5.00
2018-01-30T06:14:07.707Z,5.00
2018-01-30T06:15:10.165Z,5.00
2018-01-30T06:16:12.647Z,5.00
2018-01-30T06:17:15.864Z,5.00
2018-01-30T06:18:19.210Z,5.00
2018-01-30T06:19:21.788Z,5.00
2018-01-30T06:20:24.543Z,5.00
2018-01-30T06:21:27.017Z,5.00
2018-01-30T06:22:30.248Z,5.00
2018-01-30T06:23:33.521Z,4.90
2018-01-30T06:24:36.498Z,4.90
2018-01-30T06:25:38.981Z,4.90
2018-01-30T06:26:41.450Z,4.90
2018-01-30T06:27:43.890Z,4.90
2018-01-30T06:28:46.451Z,5.00
2018-01-30T06:29:48.938Z,5.00
2018-01-30T06:30:51.435Z,4.90
2018-01-30T06:31:53.886Z,5.00
2018-01-30T06:32:56.353Z,5.00
2018-01-30T06:33:58.873Z,5.00
2018-01-30T06:35:01.325Z,5.00
2018-01-30T06:36:03.807Z,5.00
2018-01-30T06:37:07.075Z,5.00
2018-01-30T06:38:09.600Z,5.00
2018-01-30T06:39:12.112Z,5.10
2018-01-30T06:40:15.332Z,5.10
2018-01-30T06:41:17.796Z,5.10
2018-01-30T06:42:20.269Z,5.10
2018-01-30T06:43:23.330Z,5.10
2018-01-30T06:44:26.570Z,5.10
2018-01-30T06:45:29.785Z,5.10
2018-01-30T06:46:32.236Z,5.10
2018-01-30T06:47:35.500Z,5.10
2018-01-30T06:48:37.968Z,5.10
2018-01-30T06:49:40.408Z,5.10
2018-01-30T06:50:42.896Z,5.10
2018-01-30T06:51:45.349Z,5.10
2018-01-30T06:52:47.855Z,5.10
2018-01-30T06:53:50.358Z,5.10
2018-01-30T06:54:52.845Z,5.20
2018-01-30T06:55:55.344Z,5.20
2018-01-30T06:56:57.840Z,5.20
2018-01-30T06:58:00.329Z,5.20
2018-01-30T06:59:03.563Z,5.20
2018-01-30T07:00:06.028Z,5.20
2018-01-30T07:01:08.548Z,5.20
2018-01-30T07:02:11.027Z,5.20
2018-01-30T07:03:13.516Z,5.20
2018-01-30T07:04:15.998Z,5.20
2018-01-30T07:05:19.279Z,5.20
2018-01-30T07:06:21.750Z,5.20
2018-01-30T07:07:25.110Z,5.20
2018-01-30T07:08:27.605Z,5.30
2018-01-30T07:09:30.185Z,5.30
2018-01-30T07:10:32.670Z,5.30
2018-01-30T07:11:35.171Z,5.30
2018-01-30T07:12:37.618Z,5.30
2018-01-30T07:13:40.070Z,5.30
2018-01-30T07:14:43.459Z,5.30
2018-01-30T07:15:45.923Z,5.30
2018-01-30T07:16:48.373Z,5.30
2018-01-30T07:17:50.879Z,5.30
2018-01-30T07:18:54.109Z,5.30
2018-01-30T07:19:56.671Z,5.30
2018-01-30T07:20:59.915Z,5.30
2018-01-30T07:22:02.435Z,5.30
2018-01-30T07:23:04.914Z,5.30
2018-01-30T07:24:07.489Z,5.30
2018-01-30T07:25:10.004Z,5.30
2018-01-30T07:26:13.252Z,5.30
2018-01-30T07:27:15.746Z,5.30
2018-01-30T07:28:18.226Z,5.30
2018-01-30T07:29:20.685Z,5.30
2018-01-30T07:30:23.188Z,5.30
2018-01-30T07:31:25.651Z,5.30
2018-01-30T07:32:28.212Z,5.40
2018-01-30T07:33:30.760Z,5.40
2018-01-30T07:34:33.254Z,5.40
2018-01-30T07:35:36.478Z,5.40
2018-01-30T07:36:39.719Z,5.40
2018-01-30T07:37:42.942Z,5.40
2018-01-30T07:38:45.408Z,5.40
2018-01-30T07:39:48.312Z,5.40
2018-01-30T07:40:50.772Z,5.40
2018-01-30T07:41:53.237Z,5.40
2018-01-30T07:42:55.728Z,5.40
2018-01-30T07:43:58.206Z,5.40
2018-01-30T07:45:00.815Z,5.40
2018-01-30T07:46:03.270Z,5.40
2018-01-30T07:47:06.505Z,5.40
2018-01-30T07:48:08.963Z,5.40
2018-01-30T07:49:11.450Z,5.40
2018-01-30T07:50:13.930Z,5.40
2018-01-30T07:51:16.409Z,5.40
2018-01-30T07:52:18.875Z,5.40
2018-01-30T07:53:22.779Z,5.50
2018-01-30T07:54:25.253Z,5.50
2018-01-30T07:55:27.731Z,5.50
2018-01-30T07:56:30.189Z,5.50
2018-01-30T07:57:32.641Z,5.50
2018-01-30T07:58:35.132Z,5.60
2018-01-30T07:59:39.749Z,5.50
2018-01-30T08:00:42.298Z,5.50
2018-01-30T08:01:44.797Z,5.60
2018-01-30T08:02:47.248Z,5.60
2018-01-30T08:03:49.698Z,5.50
2018-01-30T08:04:52.951Z,5.60
2018-01-30T08:05:56.523Z,5.50
2018-01-30T08:06:59.007Z,5.50
2018-01-30T08:08:01.505Z,5.60
2018-01-30T08:09:04.075Z,5.60
2018-01-30T08:10:07.321Z,5.50
2018-01-30T08:11:09.815Z,5.50
2018-01-30T08:12:12.274Z,5.50
2018-01-30T08:13:14.734Z,5.50
2018-01-30T08:14:17.245Z,5.50
2018-01-30T08:15:19.716Z,5.50
2018-01-30T08:16:22.231Z,5.50
2018-01-30T08:17:24.698Z,5.50
2018-01-30T08:18:27.156Z,5.60
2018-01-30T08:19:29.641Z,5.60
2018-01-30T08:20:32.905Z,5.60
2018-01-30T08:21:35.392Z,5.60
2018-01-30T08:22:38.029Z,5.60
2018-01-30T08:23:41.286Z,5.60
2018-01-30T08:24:43.839Z,5.50
2018-01-30T08:25:46.823Z,5.60
2018-01-30T08:26:49.313Z,5.70
2018-01-30T08:27:51.770Z,5.70
2018-01-30T08:28:54.955Z,5.70
2018-01-30T08:29:57.440Z,5.70
2018-01-30T08:30:59.904Z,5.80
2018-01-30T08:32:02.396Z,5.80
2018-01-30T08:33:05.638Z,5.80
2018-01-30T08:34:08.865Z,5.70
2018-01-30T08:35:11.350Z,5.70
2018-01-30T08:36:13.818Z,5.70
2018-01-30T08:37:16.313Z,5.70
2018-01-30T08:38:18.787Z,5.70
2018-01-30T08:39:22.067Z,5.70
2018-01-30T08:40:24.589Z,5.70
2018-01-30T08:41:27.057Z,5.70
2018-01-30T08:42:29.584Z,5.70
2018-01-30T08:43:32.059Z,5.70
2018-01-30T08:44:34.551Z,5.70
2018-01-30T08:45:37.041Z,5.70
2018-01-30T08:46:39.523Z,5.70
2018-01-30T08:47:42.011Z,5.70
2018-01-30T08:48:44.485Z,5.70
2018-01-30T08:49:46.959Z,5.70
2018-01-30T08:50:49.447Z,5.70
2018-01-30T08:51:51.924Z,5.70
2018-01-30T08:52:55.166Z,5.70
2018-01-30T08:53:58.385Z,5.70
2018-01-30T08:55:00.894Z,5.70
2018-01-30T08:56:03.369Z,5.70
2018-01-30T08:57:06.600Z,5.70
2018-01-30T08:58:09.143Z,5.70
2018-01-30T08:59:12.426Z,5.70
2018-01-30T09:00:14.930Z,5.70
2018-01-30T09:01:17.744Z,5.70
2018-01-30T09:02:20.985Z,5.70
2018-01-30T09:03:23.464Z,5.70
2018-01-30T09:04:25.952Z,5.70
2018-01-30T09:05:28.422Z,5.70
2018-01-30T09:06:30.995Z,5.70
2018-01-30T09:07:33.478Z,5.70
2018-01-30T09:08:36.716Z,5.70
2018-01-30T09:09:39.202Z,5.70
2018-01-30T09:10:41.661Z,5.80
2018-01-30T09:11:44.139Z,5.80
2018-01-30T09:12:46.614Z,5.80
2018-01-30T09:13:49.100Z,5.80
2018-01-30T09:14:51.613Z,5.80
2018-01-30T09:15:54.092Z,5.80
2018-01-30T09:16:57.072Z,5.80
2018-01-30T09:18:00.278Z,5.80
2018-01-30T09:19:02.800Z,5.80
2018-01-30T09:20:05.265Z,5.90
2018-01-30T09:21:07.726Z,5.90
2018-01-30T09:22:10.204Z,5.90
2018-01-30T09:23:13.454Z,5.90
2018-01-30T09:24:16.016Z,6.00
2018-01-30T09:25:18.514Z,6.00
2018-01-30T09:26:21.014Z,6.00
2018-01-30T09:27:24.263Z,6.00
2018-01-30T09:28:27.502Z,6.00
2018-01-30T09:29:30.757Z,6.00
2018-01-30T09:30:33.269Z,6.00
2018-01-30T09:31:36.527Z,6.00
2018-01-30T09:32:39.118Z,6.00
2018-01-30T09:33:42.065Z,6.10
2018-01-30T09:34:45.329Z,6.10
2018-01-30T09:35:48.598Z,6.00
2018-01-30T09:36:51.121Z,6.00
2018-01-30T09:37:53.610Z,6.00
2018-01-30T09:38:56.140Z,6.00
2018-01-30T09:39:59.358Z,6.00
2018-01-30T09:41:01.843Z,6.00
2018-01-30T09:42:04.321Z,6.00
2018-01-30T09:43:06.841Z,6.10
2018-01-30T09:44:10.109Z,6.10
2018-01-30T09:45:13.368Z,6.10
2018-01-30T09:46:15.859Z,6.10
2018-01-30T09:47:19.097Z,6.10
2018-01-30T09:48:21.582Z,6.10
2018-01-30T09:49:24.114Z,6.10
2018-01-30T09:50:26.592Z,6.10
2018-01-30T09:51:29.805Z,6.10
2018-01-30T09:52:32.282Z,6.10
2018-01-30T09:53:34.770Z,6.10
2018-01-30T09:54:38.030Z,6.00
2018-01-30T09:55:40.529Z,6.10
2018-01-30T09:56:43.022Z,6.00
2018-01-30T09:57:45.497Z,6.00
2018-01-30T09:58:48.799Z,6.00
2018-01-30T09:59:51.259Z,5.90
2018-01-30T10:00:54.520Z,6.00
2018-01-30T10:01:57.019Z,6.00
2018-01-30T10:03:00.251Z,6.10
2018-01-30T10:04:02.720Z,6.10
2018-01-30T10:05:05.169Z,6.10
2018-01-30T10:06:07.753Z,6.10
2018-01-30T10:07:11.063Z,6.10
2018-01-30T10:08:13.472Z,6.10
2018-01-30T10:09:15.964Z,6.10
2018-01-30T10:10:18.459Z,6.10
2018-01-30T10:11:21.725Z,6.10
2018-01-30T10:12:24.225Z,6.10
2018-01-30T10:13:27.489Z,6.10
2018-01-30T10:14:29.949Z,6.10
2018-01-30T10:15:32.412Z,6.20
2018-01-30T10:16:35.678Z,6.20
2018-01-30T10:17:39.245Z,6.10
2018-01-30T10:18:41.851Z,6.10
2018-01-30T10:19:45.083Z,6.10
2018-01-30T10:20:48.326Z,6.10
2018-01-30T10:21:51.746Z,6.10
2018-01-30T10:22:54.208Z,6.10
2018-01-30T10:23:58.442Z,6.20
2018-01-30T10:25:00.911Z,6.20
2018-01-30T10:26:03.443Z,6.20
2018-01-30T10:27:05.934Z,6.20
2018-01-30T10:28:09.197Z,6.20
2018-01-30T10:29:11.682Z,6.20
2018-01-30T10:30:14.838Z,6.20
2018-01-30T10:31:18.109Z,6.20
2018-01-30T10:32:20.742Z,6.20
2018-01-30T10:33:23.216Z,6.20
2018-01-30T10:34:25.698Z,6.10
2018-01-30T10:35:28.178Z,6.20
2018-01-30T10:36:30.746Z,6.20
2018-01-30T10:37:33.270Z,6.20
2018-01-30T10:38:35.762Z,6.20
2018-01-30T10:39:39.002Z,6.20
2018-01-30T10:40:42.234Z,6.20
2018-01-30T10:41:44.693Z,6.20
2018-01-30T10:42:47.232Z,6.20
2018-01-30T10:43:49.801Z,6.20
2018-01-30T10:44:52.290Z,6.20
2018-01-30T10:45:54.776Z,6.20
2018-01-30T10:46:57.242Z,6.20
2018-01-30T10:47:59.755Z,6.20
2018-01-30T10:49:02.226Z,6.10
2018-01-30T10:50:04.752Z,6.10
2018-01-30T10:51:08.019Z,6.10
2018-01-30T10:52:10.483Z,6.10
2018-01-30T10:53:12.997Z,6.10
2018-01-30T10:54:15.471Z,6.10
2018-01-30T10:55:18.038Z,6.10
2018-01-30T10:56:21.269Z,6.10
2018-01-30T10:57:24.509Z,6.10
2018-01-30T10:58:27.720Z,6.10
2018-01-30T10:59:30.181Z,6.10
2018-01-30T11:00:33.473Z,6.20
2018-01-30T11:01:35.942Z,6.10
2018-01-30T11:02:39.219Z,6.20
2018-01-30T11:03:41.734Z,6.20
2018-01-30T11:04:44.232Z,6.20
2018-01-30T11:05:46.711Z,6.20
2018-01-30T11:06:49.218Z,6.20
2018-01-30T11:07:51.711Z,6.20
2018-01-30T11:08:54.219Z,6.20
2018-01-30T11:09:56.691Z,6.20
2018-01-30T11:10:59.161Z,6.20
2018-01-30T11:12:01.905Z,6.20
2018-01-30T11:13:04.455Z,6.20
2018-01-30T11:14:07.706Z,6.20
2018-01-30T11:15:10.231Z,6.20
2018-01-30T11:16:12.707Z,6.20
2018-01-30T11:17:15.178Z,6.20
2018-01-30T11:18:17.647Z,6.20
2018-01-30T11:19:20.155Z,6.20
2018-01-30T11:20:22.652Z,6.20
2018-01-30T11:21:25.894Z,6.10
2018-01-30T11:22:28.379Z,6.10
2018-01-30T11:23:30.848Z,6.10
2018-01-30T11:24:33.302Z,6.10
2018-01-30T11:25:35.770Z,6.10
2018-01-30T11:26:39.045Z,6.00
2018-01-30T11:27:41.546Z,6.00
2018-01-30T11:28:44.931Z,6.00
2018-01-30T11:29:47.551Z,6.00
2018-01-30T11:30:50.065Z,6.00
2018-01-30T11:31:52.530Z,6.00
2018-01-30T11:32:55.111Z,6.10
2018-01-30T11:33:58.344Z,6.10
2018-01-30T11:35:01.574Z,6.10
2018-01-30T11:36:04.306Z,6.10
2018-01-30T11:37:07.556Z,6.10
2018-01-30T11:38:10.832Z,6.10
2018-01-30T11:39:13.351Z,6.10
2018-01-30T11:40:15.859Z,6.20
2018-01-30T11:41:19.119Z,6.20
2018-01-30T11:42:21.597Z,6.20
2018-01-30T11:43:24.073Z,6.20
2018-01-30T11:44:26.599Z,6.20
2018-01-30T11:45:29.057Z,6.20
2018-01-30T11:46:31.583Z,6.20
2018-01-30T11:47:34.867Z,6.20
2018-01-30T11:48:38.136Z,6.20
2018-01-30T11:49:40.657Z,6.10
2018-01-30T11:50:43.153Z,6.20
2018-01-30T11:51:46.387Z,6.20
2018-01-30T11:52:49.678Z,6.10
2018-01-30T11:53:52.189Z,6.20
2018-01-30T11:54:54.667Z,6.20
2018-01-30T11:55:57.165Z,6.10
2018-01-30T11:56:59.685Z,6.10
2018-01-30T11:58:02.162Z,6.10
2018-01-30T11:59:04.656Z,6.10
2018-01-30T12:00:07.417Z,6.10
2018-01-30T12:01:09.922Z,6.20
2018-01-30T12:02:12.404Z,6.20
2018-01-30T12:03:15.034Z,6.20
2018-01-30T12:04:17.502Z,6.20
2018-01-30T12:05:19.982Z,6.20
2018-01-30T12:06:22.428Z,6.20
2018-01-30T12:07:24.925Z,6.20
2018-01-30T12:08:27.448Z,6.20
2018-01-30T12:09:29.930Z,6.20
2018-01-30T12:10:34.106Z,6.10
2018-01-30T12:11:36.842Z,6.10
2018-01-30T12:12:39.343Z,6.20
2018-01-30T12:13:42.183Z,6.20
2018-01-30T12:14:44.678Z,6.20
2018-01-30T12:15:47.154Z,6.30
2018-01-30T12:16:49.717Z,6.30
2018-01-30T12:17:52.982Z,6.30
2018-01-30T12:18:55.470Z,6.30
2018-01-30T12:19:57.976Z,6.30
2018-01-30T12:21:02.186Z,6.30
2018-01-30T12:22:05.358Z,6.30
2018-01-30T12:23:08.643Z,6.30
2018-01-30T12:24:11.223Z,6.30
2018-01-30T12:25:13.716Z,6.30
2018-01-30T12:26:16.238Z,6.40
2018-01-30T12:27:18.771Z,6.40
2018-01-30T12:28:21.217Z,6.50
2018-01-30T12:29:23.720Z,6.50
2018-01-30T12:30:26.197Z,6.50
2018-01-30T12:31:29.546Z,6.50
2018-01-30T12:32:32.814Z,6.50
2018-01-30T12:33:35.281Z,6.60
2018-01-30T12:34:37.977Z,6.60
2018-01-30T12:35:40.507Z,6.60
2018-01-30T12:36:42.991Z,6.60
2018-01-30T12:37:45.498Z,6.60
2018-01-30T12:38:48.039Z,6.50
2018-01-30T12:39:51.293Z,6.50
2018-01-30T12:40:54.535Z,6.50
2018-01-30T12:41:57.762Z,6.50
2018-01-30T12:43:00.266Z,6.50
2018-01-30T12:44:02.892Z,6.50
2018-01-30T12:45:05.365Z,6.50
2018-01-30T12:46:08.585Z,6.60
2018-01-30T12:47:11.974Z,6.60
2018-01-30T12:48:14.499Z,6.60
2018-01-30T12:49:17.023Z,6.60
2018-01-30T12:50:19.552Z,6.70
2018-01-30T12:51:22.005Z,6.70
2018-01-30T12:52:24.499Z,6.70
2018-01-30T12:53:26.979Z,6.70
2018-01-30T12:54:29.512Z,6.70
2018-01-30T12:55:32.011Z,6.70
2018-01-30T12:56:34.505Z,6.70
2018-01-30T12:57:36.989Z,6.70
2018-01-30T12:58:41.078Z,6.70
2018-01-30T12:59:43.943Z,6.70
2018-01-30T13:00:46.581Z,6.80
2018-01-30T13:01:50.431Z,6.80
2018-01-30T13:02:52.921Z,6.80
2018-01-30T13:03:55.395Z,6.80
2018-01-30T13:04:57.910Z,6.80
2018-01-30T13:06:00.463Z,6.80
2018-01-30T13:07:02.925Z,6.80
2018-01-30T13:08:05.507Z,6.80
2018-01-30T13:09:08.219Z,6.80
2018-01-30T13:10:10.739Z,6.70
2018-01-30T13:11:13.252Z,6.70
2018-01-30T13:12:15.722Z,6.70
2018-01-30T13:13:18.558Z,6.70
2018-01-30T13:14:21.065Z,6.60
2018-01-30T13:15:23.529Z,6.60
2018-01-30T13:16:26.859Z,6.60
2018-01-30T13:17:29.418Z,6.60
2018-01-30T13:18:31.972Z,6.70
2018-01-30T13:19:35.243Z,6.70
2018-01-30T13:20:37.721Z,6.70
2018-01-30T13:21:40.212Z,6.70
2018-01-30T13:22:43.481Z,6.60
2018-01-30T13:23:45.943Z,6.60
2018-01-30T13:24:48.432Z,6.60
2018-01-30T13:25:50.888Z,6.60
2018-01-30T13:26:53.415Z,6.50
2018-01-30T13:27:55.899Z,6.50
2018-01-30T13:28:58.418Z,6.50
2018-01-30T13:30:00.919Z,6.50
2018-01-30T13:31:03.481Z,6.50
2018-01-30T13:32:05.998Z,6.50
2018-01-30T13:33:08.481Z,6.50
2018-01-30T13:34:10.998Z,6.50
2018-01-30T13:35:13.500Z,6.50
2018-01-30T13:36:16.680Z,6.50
2018-01-30T13:37:19.190Z,6.50
2018-01-30T13:38:21.775Z,6.50
2018-01-30T13:39:24.276Z,6.40
2018-01-30T13:40:27.736Z,6.50
2018-01-30T13:41:30.220Z,6.50
2018-01-30T13:42:32.753Z,6.50
2018-01-30T13:43:36.055Z,6.50
2018-01-30T13:44:38.523Z,6.40
2018-01-30T13:45:40.992Z,6.50
2018-01-30T13:46:43.567Z,6.40
2018-01-30T13:47:46.017Z,6.50
2018-01-30T13:48:49.317Z,6.50
2018-01-30T13:49:51.806Z,6.50
2018-01-30T13:50:54.378Z,6.50
2018-01-30T13:51:56.845Z,6.50
2018-01-30T13:53:00.068Z,6.50
2018-01-30T13:54:02.570Z,6.50
2018-01-30T13:55:05.417Z,6.50